JAL102 RJOO-RJTT
Flight info
| Callsign | JAL102 |
|---|---|
| Flight time | 0h 44m |
| Altitude | 27000 |
| Route | ASUKA SHTLE Y71 XAC |
| Aircraft | B772/H-SDE2E3FGHIJ5LORVWXY/LB1D1 |
Departure
| Time | 2026-05-06 11:57 |
|---|---|
| Airport | Osaka Itami International Airport (RJOO) |
Arrival
| Time | 2026-05-06 12:41 |
|---|---|
| Airport | Tokyo Haneda International Airport (RJTT) |
| Time | Latitude | Longitude | Altitude | Speed | Heading |
|---|---|---|---|---|---|
| 2026-05-06 11:21 | 34.79127 | 135.43919 | 53 ft | 0 kts | 67° |
| 2026-05-06 11:45 | 34.79125 | 135.43913 | 53 ft | 3 kts | 66° |
| 2026-05-06 11:45 | 34.79117 | 135.43890 | 48 ft | 3 kts | 66° |
| 2026-05-06 11:45 | 34.79109 | 135.43867 | 46 ft | 3 kts | 66° |
| 2026-05-06 11:45 | 34.79100 | 135.43845 | 50 ft | 3 kts | 66° |
| 2026-05-06 11:46 | 34.79092 | 135.43822 | 48 ft | 3 kts | 66° |
| 2026-05-06 11:46 | 34.79084 | 135.43799 | 47 ft | 3 kts | 66° |
| 2026-05-06 11:46 | 34.79076 | 135.43778 | 47 ft | 3 kts | 66° |
| 2026-05-06 11:46 | 34.79070 | 135.43758 | 46 ft | 2 kts | 84° |
| 2026-05-06 11:47 | 34.79071 | 135.43740 | 45 ft | 2 kts | 108° |
| 2026-05-06 11:47 | 34.79075 | 135.43729 | 45 ft | 1 kts | 122° |
| 2026-05-06 11:47 | 34.79079 | 135.43721 | 49 ft | 1 kts | 130° |
| 2026-05-06 11:47 | 34.79082 | 135.43716 | 49 ft | 0 kts | 134° |
| 2026-05-06 11:49 | 34.79082 | 135.43717 | 49 ft | 0 kts | 134° |
| 2026-05-06 11:49 | 34.79055 | 135.43749 | 50 ft | 7 kts | 136° |
| 2026-05-06 11:49 | 34.79020 | 135.43790 | 47 ft | 7 kts | 135° |
| 2026-05-06 11:49 | 34.78986 | 135.43832 | 46 ft | 7 kts | 135° |
| 2026-05-06 11:50 | 34.78952 | 135.43873 | 49 ft | 7 kts | 135° |
| 2026-05-06 11:50 | 34.78918 | 135.43915 | 47 ft | 7 kts | 135° |
| 2026-05-06 11:50 | 34.78884 | 135.43957 | 47 ft | 7 kts | 135° |
| 2026-05-06 11:50 | 34.78844 | 135.44004 | 47 ft | 10 kts | 135° |
| 2026-05-06 11:51 | 34.78751 | 135.44116 | 49 ft | 22 kts | 135° |
| 2026-05-06 11:51 | 34.78647 | 135.44241 | 51 ft | 18 kts | 135° |
| 2026-05-06 11:51 | 34.78576 | 135.44324 | 47 ft | 10 kts | 144° |
| 2026-05-06 11:51 | 34.78506 | 135.44335 | 51 ft | 10 kts | 179° |
| 2026-05-06 11:52 | 34.78436 | 135.44335 | 51 ft | 10 kts | 181° |
| 2026-05-06 11:52 | 34.78364 | 135.44334 | 53 ft | 12 kts | 180° |
| 2026-05-06 11:52 | 34.78259 | 135.44334 | 52 ft | 16 kts | 180° |
| 2026-05-06 11:52 | 34.78167 | 135.44348 | 47 ft | 12 kts | 149° |
| 2026-05-06 11:53 | 34.78105 | 135.44420 | 49 ft | 12 kts | 134° |
| 2026-05-06 11:53 | 34.78045 | 135.44495 | 49 ft | 12 kts | 134° |
| 2026-05-06 11:53 | 34.77985 | 135.44570 | 49 ft | 12 kts | 136° |
| 2026-05-06 11:53 | 34.77923 | 135.44642 | 48 ft | 12 kts | 136° |
| 2026-05-06 11:54 | 34.77881 | 135.44690 | 48 ft | 12 kts | 136° |
| 2026-05-06 11:54 | 34.77821 | 135.44764 | 47 ft | 12 kts | 134° |
| 2026-05-06 11:54 | 34.77741 | 135.44862 | 47 ft | 12 kts | 135° |
| 2026-05-06 11:54 | 34.77696 | 135.44907 | 46 ft | 12 kts | 148° |
| 2026-05-06 11:55 | 34.77590 | 135.44969 | 47 ft | 13 kts | 155° |
| 2026-05-06 11:55 | 34.77536 | 135.45000 | 47 ft | 13 kts | 155° |
| 2026-05-06 11:55 | 34.77464 | 135.45012 | 53 ft | 11 kts | 201° |
| 2026-05-06 11:55 | 34.77432 | 135.44940 | 47 ft | 10 kts | 278° |
| 2026-05-06 11:56 | 34.77465 | 135.44889 | 49 ft | 4 kts | 315° |
| 2026-05-06 11:56 | 34.77619 | 135.44701 | 47 ft | 69 kts | 315° |
| 2026-05-06 11:56 | 34.77942 | 135.44311 | 48 ft | 126 kts | 315° |
| 2026-05-06 11:56 | 34.78730 | 135.43361 | 158 ft | 184 kts | 316° |
| 2026-05-06 11:57 | 34.79575 | 135.42283 | 1273 ft | 169 kts | 306° |
| 2026-05-06 11:57 | 34.79952 | 135.40839 | 1992 ft | 191 kts | 265° |
| 2026-05-06 11:57 | 34.79486 | 135.39365 | 2847 ft | 182 kts | 232° |
| 2026-05-06 11:57 | 34.78715 | 135.38179 | 3899 ft | 178 kts | 227° |
| 2026-05-06 11:58 | 34.77776 | 135.37082 | 4512 ft | 192 kts | 217° |
| 2026-05-06 11:58 | 34.76624 | 135.36210 | 5115 ft | 205 kts | 206° |
| 2026-05-06 11:58 | 34.75167 | 135.35856 | 5329 ft | 233 kts | 171° |
| 2026-05-06 11:58 | 34.73661 | 135.36809 | 5622 ft | 263 kts | 133° |
| 2026-05-06 11:59 | 34.72864 | 135.38851 | 6234 ft | 277 kts | 97° |
| 2026-05-06 11:59 | 34.73153 | 135.41170 | 6933 ft | 284 kts | 63° |
| 2026-05-06 11:59 | 34.74138 | 135.43248 | 7508 ft | 286 kts | 62° |
| 2026-05-06 11:59 | 34.75022 | 135.45447 | 8196 ft | 291 kts | 64° |
| 2026-05-06 12:00 | 34.75903 | 135.47684 | 8967 ft | 294 kts | 64° |
| 2026-05-06 12:00 | 34.76806 | 135.49905 | 9674 ft | 298 kts | 63° |
| 2026-05-06 12:00 | 34.77750 | 135.52186 | 10292 ft | 305 kts | 63° |
| 2026-05-06 12:00 | 34.78510 | 135.54663 | 10444 ft | 325 kts | 78° |
| 2026-05-06 12:01 | 34.78805 | 135.57466 | 10608 ft | 347 kts | 89° |
| 2026-05-06 12:01 | 34.78744 | 135.60485 | 10976 ft | 364 kts | 94° |
| 2026-05-06 12:01 | 34.78560 | 135.63606 | 11639 ft | 375 kts | 95° |
| 2026-05-06 12:01 | 34.78358 | 135.66801 | 12490 ft | 382 kts | 95° |
| 2026-05-06 12:02 | 34.78170 | 135.70046 | 13468 ft | 387 kts | 95° |
| 2026-05-06 12:02 | 34.78001 | 135.73340 | 14353 ft | 393 kts | 94° |
| 2026-05-06 12:02 | 34.77845 | 135.76683 | 15178 ft | 399 kts | 94° |
| 2026-05-06 12:02 | 34.77696 | 135.80078 | 15979 ft | 405 kts | 94° |
| 2026-05-06 12:03 | 34.77551 | 135.83480 | 16735 ft | 411 kts | 94° |
| 2026-05-06 12:03 | 34.77401 | 135.87026 | 17527 ft | 417 kts | 93° |
| 2026-05-06 12:03 | 34.77251 | 135.90534 | 18238 ft | 424 kts | 93° |
| 2026-05-06 12:03 | 34.77096 | 135.94143 | 18876 ft | 430 kts | 94° |
| 2026-05-06 12:04 | 34.76941 | 135.97733 | 19457 ft | 437 kts | 94° |
| 2026-05-06 12:04 | 34.76778 | 136.01450 | 20064 ft | 442 kts | 94° |
| 2026-05-06 12:04 | 34.76686 | 136.05214 | 20627 ft | 449 kts | 90° |
| 2026-05-06 12:04 | 34.76865 | 136.09037 | 21177 ft | 457 kts | 86° |
| 2026-05-06 12:05 | 34.77187 | 136.12916 | 21719 ft | 463 kts | 85° |
| 2026-05-06 12:05 | 34.77552 | 136.16836 | 22274 ft | 469 kts | 85° |
| 2026-05-06 12:05 | 34.77911 | 136.20802 | 22824 ft | 475 kts | 86° |
| 2026-05-06 12:05 | 34.78250 | 136.24831 | 23362 ft | 481 kts | 86° |
| 2026-05-06 12:06 | 34.78567 | 136.28900 | 23898 ft | 485 kts | 87° |
| 2026-05-06 12:06 | 34.78768 | 136.31614 | 24222 ft | 488 kts | 88° |
| 2026-05-06 12:06 | 34.79054 | 136.35610 | 24694 ft | 492 kts | 88° |
| 2026-05-06 12:06 | 34.79278 | 136.38810 | 25056 ft | 496 kts | 88° |
| 2026-05-06 12:07 | 34.79572 | 136.43053 | 25542 ft | 500 kts | 88° |
| 2026-05-06 12:07 | 34.79865 | 136.47286 | 25998 ft | 506 kts | 88° |
| 2026-05-06 12:07 | 34.80163 | 136.51577 | 26493 ft | 510 kts | 88° |
| 2026-05-06 12:07 | 34.80463 | 136.55897 | 26969 ft | 514 kts | 89° |
| 2026-05-06 12:08 | 34.80764 | 136.60262 | 27161 ft | 522 kts | 89° |
| 2026-05-06 12:08 | 34.81069 | 136.64696 | 27134 ft | 527 kts | 89° |
| 2026-05-06 12:08 | 34.81375 | 136.69163 | 27133 ft | 528 kts | 89° |
| 2026-05-06 12:08 | 34.81680 | 136.73623 | 27132 ft | 528 kts | 89° |
| 2026-05-06 12:09 | 34.81983 | 136.78071 | 27131 ft | 528 kts | 89° |
| 2026-05-06 12:09 | 34.82283 | 136.82526 | 27127 ft | 528 kts | 89° |
| 2026-05-06 12:09 | 34.82582 | 136.86986 | 27131 ft | 528 kts | 89° |
| 2026-05-06 12:09 | 34.82879 | 136.91443 | 27128 ft | 528 kts | 89° |
| 2026-05-06 12:10 | 34.83100 | 136.95879 | 27127 ft | 524 kts | 95° |
| 2026-05-06 12:10 | 34.82842 | 137.00217 | 27134 ft | 518 kts | 103° |
| 2026-05-06 12:10 | 34.82327 | 137.04559 | 27139 ft | 518 kts | 105° |
| 2026-05-06 12:10 | 34.81734 | 137.08886 | 27130 ft | 518 kts | 105° |
| 2026-05-06 12:11 | 34.81143 | 137.13211 | 27133 ft | 520 kts | 105° |
| 2026-05-06 12:11 | 34.80583 | 137.17574 | 27129 ft | 521 kts | 104° |
| 2026-05-06 12:11 | 34.80060 | 137.21938 | 27126 ft | 521 kts | 104° |
| 2026-05-06 12:11 | 34.79563 | 137.26292 | 27124 ft | 520 kts | 104° |
| 2026-05-06 12:12 | 34.79079 | 137.30634 | 27125 ft | 518 kts | 103° |
| 2026-05-06 12:12 | 34.78595 | 137.34986 | 27127 ft | 517 kts | 104° |
| 2026-05-06 12:12 | 34.78111 | 137.39310 | 27129 ft | 517 kts | 104° |
| 2026-05-06 12:12 | 34.77619 | 137.43651 | 27134 ft | 516 kts | 104° |
| 2026-05-06 12:13 | 34.77126 | 137.47966 | 27142 ft | 516 kts | 104° |
| 2026-05-06 12:13 | 34.76627 | 137.52296 | 27135 ft | 516 kts | 104° |
| 2026-05-06 12:13 | 34.76128 | 137.56620 | 27131 ft | 516 kts | 104° |
| 2026-05-06 12:13 | 34.75629 | 137.60946 | 27130 ft | 516 kts | 104° |
| 2026-05-06 12:14 | 34.75131 | 137.65258 | 27138 ft | 515 kts | 104° |
| 2026-05-06 12:14 | 34.74635 | 137.69570 | 27142 ft | 516 kts | 103° |
| 2026-05-06 12:14 | 34.74191 | 137.73907 | 27137 ft | 517 kts | 102° |
| 2026-05-06 12:14 | 34.73788 | 137.78193 | 27134 ft | 517 kts | 102° |
| 2026-05-06 12:15 | 34.73394 | 137.82489 | 27140 ft | 517 kts | 102° |
| 2026-05-06 12:15 | 34.72989 | 137.86827 | 27140 ft | 517 kts | 102° |
| 2026-05-06 12:15 | 34.72573 | 137.91168 | 27149 ft | 517 kts | 102° |
| 2026-05-06 12:15 | 34.72146 | 137.95529 | 27131 ft | 517 kts | 103° |
| 2026-05-06 12:16 | 34.71720 | 137.99858 | 27127 ft | 517 kts | 103° |
| 2026-05-06 12:16 | 34.71376 | 138.04206 | 27124 ft | 519 kts | 98° |
| 2026-05-06 12:16 | 34.71319 | 138.08593 | 27145 ft | 520 kts | 94° |
| 2026-05-06 12:16 | 34.71359 | 138.12962 | 27122 ft | 511 kts | 94° |
| 2026-05-06 12:17 | 34.71417 | 138.17208 | 27114 ft | 506 kts | 94° |
| 2026-05-06 12:17 | 34.71469 | 138.21544 | 27125 ft | 506 kts | 94° |
| 2026-05-06 12:17 | 34.71505 | 138.25772 | 27122 ft | 506 kts | 95° |
| 2026-05-06 12:17 | 34.71529 | 138.30046 | 27141 ft | 506 kts | 95° |
| 2026-05-06 12:18 | 34.71547 | 138.34286 | 27115 ft | 498 kts | 95° |
| 2026-05-06 12:18 | 34.71560 | 138.38476 | 27119 ft | 492 kts | 95° |
| 2026-05-06 12:18 | 34.71570 | 138.42626 | 27126 ft | 490 kts | 95° |
| 2026-05-06 12:18 | 34.71576 | 138.46778 | 27150 ft | 492 kts | 95° |
| 2026-05-06 12:19 | 34.71581 | 138.50938 | 27156 ft | 493 kts | 95° |
| 2026-05-06 12:19 | 34.71586 | 138.55110 | 27157 ft | 493 kts | 95° |
| 2026-05-06 12:19 | 34.71591 | 138.59295 | 27157 ft | 494 kts | 95° |
| 2026-05-06 12:19 | 34.71596 | 138.63458 | 27045 ft | 493 kts | 95° |
| 2026-05-06 12:20 | 34.71600 | 138.67634 | 26690 ft | 492 kts | 95° |
| 2026-05-06 12:20 | 34.71602 | 138.71773 | 26328 ft | 488 kts | 95° |
| 2026-05-06 12:20 | 34.71604 | 138.75828 | 25979 ft | 483 kts | 95° |
| 2026-05-06 12:20 | 34.71604 | 138.79934 | 25573 ft | 478 kts | 95° |
| 2026-05-06 12:21 | 34.71594 | 138.83970 | 25120 ft | 476 kts | 95° |
| 2026-05-06 12:21 | 34.71573 | 138.87943 | 24657 ft | 475 kts | 96° |
| 2026-05-06 12:21 | 34.71548 | 138.91946 | 24199 ft | 474 kts | 95° |
| 2026-05-06 12:21 | 34.71525 | 138.95957 | 23737 ft | 472 kts | 95° |
| 2026-05-06 12:22 | 34.71501 | 138.99938 | 23218 ft | 468 kts | 95° |
| 2026-05-06 12:22 | 34.71480 | 139.03866 | 22822 ft | 461 kts | 95° |
| 2026-05-06 12:22 | 34.71459 | 139.07719 | 22393 ft | 449 kts | 95° |
| 2026-05-06 12:22 | 34.71438 | 139.11484 | 21632 ft | 440 kts | 95° |
| 2026-05-06 12:23 | 34.71413 | 139.15188 | 20779 ft | 435 kts | 95° |
| 2026-05-06 12:23 | 34.71386 | 139.18831 | 19991 ft | 429 kts | 95° |
| 2026-05-06 12:23 | 34.71359 | 139.22436 | 19245 ft | 423 kts | 94° |
| 2026-05-06 12:23 | 34.71332 | 139.25970 | 18682 ft | 413 kts | 94° |
| 2026-05-06 12:24 | 34.71305 | 139.29398 | 18158 ft | 400 kts | 94° |
| 2026-05-06 12:24 | 34.71277 | 139.32780 | 17676 ft | 398 kts | 94° |
| 2026-05-06 12:24 | 34.71247 | 139.36131 | 17289 ft | 394 kts | 94° |
| 2026-05-06 12:24 | 34.71231 | 139.39434 | 16917 ft | 386 kts | 90° |
| 2026-05-06 12:25 | 34.71721 | 139.42631 | 16503 ft | 386 kts | 68° |
| 2026-05-06 12:25 | 34.72952 | 139.45473 | 16104 ft | 377 kts | 59° |
| 2026-05-06 12:25 | 34.74262 | 139.48223 | 15777 ft | 372 kts | 59° |
| 2026-05-06 12:25 | 34.75543 | 139.50937 | 15422 ft | 369 kts | 59° |
| 2026-05-06 12:26 | 34.76793 | 139.53617 | 15065 ft | 365 kts | 59° |
| 2026-05-06 12:26 | 34.78021 | 139.56271 | 14722 ft | 362 kts | 59° |
| 2026-05-06 12:26 | 34.79242 | 139.58929 | 14364 ft | 359 kts | 59° |
| 2026-05-06 12:26 | 34.80451 | 139.61569 | 14019 ft | 355 kts | 59° |
| 2026-05-06 12:27 | 34.81646 | 139.64180 | 13642 ft | 350 kts | 59° |
| 2026-05-06 12:27 | 34.82801 | 139.66709 | 13248 ft | 336 kts | 59° |
| 2026-05-06 12:27 | 34.83904 | 139.69126 | 13142 ft | 315 kts | 59° |
| 2026-05-06 12:27 | 34.85029 | 139.71358 | 13148 ft | 306 kts | 48° |
| 2026-05-06 12:28 | 34.86496 | 139.73244 | 13167 ft | 307 kts | 41° |
| 2026-05-06 12:28 | 34.88041 | 139.75057 | 12940 ft | 307 kts | 40° |
| 2026-05-06 12:28 | 34.89657 | 139.76711 | 12566 ft | 304 kts | 32° |
| 2026-05-06 12:28 | 34.91424 | 139.78179 | 12082 ft | 308 kts | 30° |
| 2026-05-06 12:29 | 34.93202 | 139.79595 | 11829 ft | 303 kts | 30° |
| 2026-05-06 12:29 | 34.94934 | 139.80990 | 11611 ft | 298 kts | 30° |
| 2026-05-06 12:29 | 34.96655 | 139.82400 | 11331 ft | 296 kts | 31° |
| 2026-05-06 12:29 | 34.98356 | 139.83812 | 11027 ft | 295 kts | 31° |
| 2026-05-06 12:30 | 35.00045 | 139.85229 | 10713 ft | 294 kts | 32° |
| 2026-05-06 12:30 | 35.01708 | 139.86632 | 10423 ft | 293 kts | 32° |
| 2026-05-06 12:30 | 35.03381 | 139.88050 | 10143 ft | 292 kts | 32° |
| 2026-05-06 12:30 | 35.05045 | 139.89463 | 9822 ft | 290 kts | 32° |
| 2026-05-06 12:31 | 35.06702 | 139.90873 | 9522 ft | 289 kts | 32° |
| 2026-05-06 12:31 | 35.08346 | 139.92274 | 9229 ft | 287 kts | 32° |
| 2026-05-06 12:31 | 35.09962 | 139.93650 | 9061 ft | 281 kts | 32° |
| 2026-05-06 12:31 | 35.11539 | 139.94994 | 8954 ft | 270 kts | 32° |
| 2026-05-06 12:32 | 35.13053 | 139.96287 | 8631 ft | 261 kts | 32° |
| 2026-05-06 12:32 | 35.14551 | 139.97519 | 8201 ft | 258 kts | 24° |
| 2026-05-06 12:32 | 35.16240 | 139.98050 | 7739 ft | 248 kts | 357° |
| 2026-05-06 12:32 | 35.17965 | 139.98082 | 7307 ft | 247 kts | 357° |
| 2026-05-06 12:33 | 35.19682 | 139.98130 | 6903 ft | 246 kts | 357° |
| 2026-05-06 12:33 | 35.21388 | 139.98184 | 6478 ft | 244 kts | 358° |
| 2026-05-06 12:33 | 35.23075 | 139.98240 | 6015 ft | 242 kts | 358° |
| 2026-05-06 12:33 | 35.24714 | 139.98297 | 5551 ft | 235 kts | 358° |
| 2026-05-06 12:34 | 35.26035 | 139.98109 | 5181 ft | 223 kts | 332° |
| 2026-05-06 12:34 | 35.27284 | 139.97241 | 5014 ft | 207 kts | 324° |
| 2026-05-06 12:34 | 35.28483 | 139.96400 | 4997 ft | 201 kts | 325° |
| 2026-05-06 12:34 | 35.29727 | 139.95535 | 5038 ft | 204 kts | 326° |
| 2026-05-06 12:35 | 35.30942 | 139.94682 | 5000 ft | 203 kts | 325° |
| 2026-05-06 12:35 | 35.32156 | 139.93826 | 4991 ft | 199 kts | 324° |
| 2026-05-06 12:35 | 35.33222 | 139.93071 | 4984 ft | 198 kts | 324° |
| 2026-05-06 12:35 | 35.34413 | 139.92228 | 4896 ft | 198 kts | 324° |
| 2026-05-06 12:36 | 35.35621 | 139.91370 | 4579 ft | 201 kts | 325° |
| 2026-05-06 12:36 | 35.36736 | 139.90579 | 4198 ft | 205 kts | 325° |
| 2026-05-06 12:36 | 35.37972 | 139.89704 | 3763 ft | 204 kts | 325° |
| 2026-05-06 12:36 | 35.39185 | 139.88846 | 3292 ft | 198 kts | 325° |
| 2026-05-06 12:37 | 35.40329 | 139.88037 | 3008 ft | 183 kts | 325° |
| 2026-05-06 12:37 | 35.41399 | 139.87279 | 2759 ft | 173 kts | 325° |
| 2026-05-06 12:37 | 35.42417 | 139.86555 | 2522 ft | 170 kts | 324° |
| 2026-05-06 12:37 | 35.43445 | 139.85823 | 2326 ft | 172 kts | 325° |
| 2026-05-06 12:38 | 35.44484 | 139.85085 | 2100 ft | 172 kts | 325° |
| 2026-05-06 12:38 | 35.45520 | 139.84350 | 1884 ft | 172 kts | 326° |
| 2026-05-06 12:38 | 35.46545 | 139.83622 | 1664 ft | 169 kts | 326° |
| 2026-05-06 12:38 | 35.47556 | 139.82904 | 1411 ft | 162 kts | 326° |
| 2026-05-06 12:39 | 35.48515 | 139.82222 | 1204 ft | 161 kts | 325° |
| 2026-05-06 12:39 | 35.49475 | 139.81540 | 986 ft | 157 kts | 327° |
| 2026-05-06 12:39 | 35.50405 | 139.80878 | 772 ft | 152 kts | 327° |
| 2026-05-06 12:39 | 35.51322 | 139.80226 | 588 ft | 155 kts | 328° |
| 2026-05-06 12:40 | 35.52161 | 139.79632 | 419 ft | 156 kts | 329° |
| 2026-05-06 12:40 | 35.53130 | 139.78948 | 200 ft | 156 kts | 330° |
| 2026-05-06 12:40 | 35.54008 | 139.78327 | 34 ft | 136 kts | 330° |
| 2026-05-06 12:40 | 35.54530 | 139.77953 | 27 ft | 107 kts | 330° |
| 2026-05-06 12:41 | 35.55011 | 139.77607 | 27 ft | 54 kts | 330° |
| 2026-05-06 12:41 | 35.55182 | 139.77488 | 27 ft | 6 kts | 330° |
| 2026-05-06 12:41 | 35.55324 | 139.77398 | 27 ft | 31 kts | 338° |
| 2026-05-06 12:41 | 35.55443 | 139.77359 | 28 ft | 24 kts | 351° |
| 2026-05-06 12:42 | 35.55519 | 139.77353 | 30 ft | 0 kts | 357° |
| 2026-05-06 12:44 | 35.55555 | 139.77361 | 32 ft | 14 kts | 25° |
| 2026-05-06 12:44 | 35.55579 | 139.77448 | 34 ft | 11 kts | 111° |
| 2026-05-06 12:44 | 35.55521 | 139.77502 | 34 ft | 11 kts | 150° |
| 2026-05-06 12:44 | 35.55446 | 139.77554 | 34 ft | 18 kts | 150° |
| 2026-05-06 12:45 | 35.55315 | 139.77647 | 34 ft | 23 kts | 150° |
| 2026-05-06 12:45 | 35.55180 | 139.77742 | 34 ft | 23 kts | 150° |
| 2026-05-06 12:45 | 35.54905 | 139.77939 | 34 ft | 23 kts | 150° |
| 2026-05-06 12:46 | 35.54769 | 139.78035 | 32 ft | 21 kts | 150° |
| 2026-05-06 12:46 | 35.54676 | 139.78101 | 34 ft | 12 kts | 149° |
| 2026-05-06 12:46 | 35.54604 | 139.78153 | 33 ft | 11 kts | 148° |
| 2026-05-06 12:46 | 35.54586 | 139.78213 | 34 ft | 7 kts | 75° |
| 2026-05-06 12:47 | 35.54592 | 139.78276 | 34 ft | 7 kts | 94° |
| 2026-05-06 12:47 | 35.54590 | 139.78340 | 35 ft | 7 kts | 91° |
| 2026-05-06 12:47 | 35.54590 | 139.78404 | 35 ft | 7 kts | 89° |
| 2026-05-06 12:47 | 35.54590 | 139.78458 | 35 ft | 0 kts | 90° |
| 2026-05-06 12:48 | 35.54590 | 139.78461 | 35 ft | 2 kts | 90° |
| 2026-05-06 12:48 | 35.54590 | 139.78470 | 35 ft | 1 kts | 90° |
| 2026-05-06 12:48 | 35.54590 | 139.78472 | 35 ft | 0 kts | 90° |